7°C
Gosport, Hampshire, United Kingdom
Language:  English
Updated15/02/2019 23:15:00 
 

Nearby METAR Reports

 

EGHI - Southampton Wx Centre, United Kingdom
Distance from station: NW 15mi, 24km
Updated: 15-Feb-2019 22:50:00
Fog, Mostly cloudy
Fog, Mostly cloudy
 Wind from E
Wind: E 1 mph , 2 km/h
Temperature: 1°C
Dew Point: 0°C
Humidity: 93%
Barometer: 1024 hPa
Summary: Fog
Clouds: Mostly cloudy
Visibility: 0 mile , 1 km
Cloud details: Mostly cloudy 152 m
2019/02/15 22:50 EGHI 152250Z 08001KT 0550 R20/0450 FG BKN005 01/00 Q1024
EGHH - Bournemouth Airport, United Kingdom
Distance from station: W 30mi, 49km
Updated: 15-Feb-2019 21:50:00
NOT Current
Fog, Mostly cloudy
Fog, Mostly cloudy
 Wind from ESE
Wind: ESE 2 mph , 4 km/h
Temperature: 1°C
Dew Point: 1°C
Humidity: 100%
Barometer: 1024 hPa
Summary: Fog
Clouds: Mostly cloudy
Visibility: 0 mile , 0 km
Cloud details: Mostly cloudy 152 m
2019/02/15 21:50 EGHH 152150Z 11002KT 0250 FG BKN005 01/01 Q1024
EGVP - Middle Wallop Airfield, United Kingdom
Distance from station: NW 31mi, 49km
Updated: 15-Feb-2019 22:50:00
Clear
Clear
 Wind from SE
Wind: SE 5 mph , 7 km/h
Temperature: 4°C
Wind Chill: 2°C
Dew Point: 4°C
Humidity: 100%
Barometer: 1023 hPa
Clouds: Clear
Visibility: 1 mile , 2 km
2019/02/15 22:50 EGVP 152250Z AUTO 13004KT 1900 // NCD 04/04 Q1023
 
EGVO - RAF Odiham, United Kingdom
Distance from station: NNE 32mi, 52km
Updated: 15-Feb-2019 22:50:00
Haze, Clear
Haze, Clear
 Wind from SSE
Wind: SSE 10 mph , 17 km/h
Temperature: 5°C
Wind Chill: 2°C
Dew Point: 3°C
Humidity: 87%
Barometer: 1023 hPa
Summary: Haze
Clouds: Clear
Visibility: 3 miles , 5 km
2019/02/15 22:50 EGVO 152250Z AUTO 15009KT 5000 HZ NCD 05/03 Q1023
EGKA - Shoreham Airport, United Kingdom
Distance from station: E 37mi, 59km
Updated: 15-Feb-2019 14:50:00
NOT Current
Partly cloudy
Partly cloudy
 Wind from ESE
Wind: ESE 6 mph , 9 km/h
Temperature: 10°C
Wind Chill: 9°C
Dew Point: 7°C
Humidity: 82%
Barometer: 1026 hPa
Clouds: Partly cloudy
Visibility: 5 miles , 8 km
2019/02/15 14:50 EGKA 151450Z 12005KT 8000 NSC 10/07 Q1026
EGDM - Boscombe Down, United Kingdom
Distance from station: NW 38mi, 61km
Updated: 15-Feb-2019 22:50:00
Mist, Clear
Mist, Clear
 Wind from SE
Wind: SE 5 mph , 7 km/h
Temperature: 4°C
Wind Chill: 2°C
Dew Point: 4°C
Humidity: 100%
Barometer: 1023 hPa
Summary: Mist
Clouds: Clear
Visibility: 4 miles , 7 km
2019/02/15 22:50 EGDM 152250Z AUTO 14004KT 7000 BR NCD 04/04 Q1023
 
EGLF - Farnborough, United Kingdom
Distance from station: NNE 38mi, 61km
Updated: 15-Feb-2019 21:50:00
NOT Current
Partly cloudy
Partly cloudy
 Wind from S
Wind: S 7 mph , 11 km/h
Temperature: 4°C
Wind Chill: 1°C
Dew Point: 3°C
Humidity: 93%
Barometer: 1024 hPa
Clouds: Partly cloudy
Visibility: 5 miles , 8 km
2019/02/15 21:50 EGLF 152150Z 17006KT 8000 NSC 04/03 Q1024
EGKK - Gatwick Airport, United Kingdom
Distance from station: ENE 49mi, 78km
Updated: 15-Feb-2019 22:50:00
Partly cloudy
Partly cloudy
 Wind from ESE
Wind: ESE 1 mph , 2 km/h
Temperature: 2°C
Dew Point: 2°C
Humidity: 100%
Barometer: 1024 hPa
Clouds: Partly cloudy
Visibility: 6 miles , 10 km
2019/02/15 22:50 EGKK 152250Z 12001KT 9999 NSC 02/02 Q1024
EGLL - Heathrow Airport, United Kingdom
Distance from station: NNE 57mi, 91km
Updated: 15-Feb-2019 22:50:00
Clear
Clear
 Wind from varies
Wind: varies 3 mph , 6 km/h
Temperature: 6°C
Dew Point: 3°C
Humidity: 81%
Barometer: 1024 hPa
Clouds: Clear
Visibility: 4 miles , 7 km
2019/02/15 22:50 EGLL 152250Z AUTO VRB03KT 7000 NCD 06/03 Q1024 NOSIG
 
EGUB - RAF Benson, United Kingdom
Distance from station: N 58mi, 93km
Updated: 15-Feb-2019 22:50:00
Clear
Clear
 Wind from S
Wind: S 15 mph , 24 km/h
Temperature: 6°C
Wind Chill: 2°C
Dew Point: 4°C
Humidity: 87%
Barometer: 1022 hPa
Clouds: Clear
Visibility: 6 miles , 9 km
2019/02/15 22:50 EGUB 152250Z AUTO 17013KT 9000 // NCD 06/04 Q1022
EGWU - RAF Northolt, United Kingdom
Distance from station: NNE 62mi, 99km
Updated: 15-Feb-2019 22:50:00
Clear
Clear
 Wind from SE
Wind: SE 3 mph , 6 km/h
Temperature: 4°C
Dew Point: 2°C
Humidity: 87%
Barometer: 1023 hPa
Clouds: Clear
Visibility: 6 miles , 9 km
2019/02/15 22:50 EGWU 152250Z AUTO 14003KT 9000 // NCD 04/02 Q1023
EGKB - Biggin Hill Airport, United Kingdom
Distance from station: NE 62mi, 100km
Updated: 15-Feb-2019 22:20:00
Clear
Clear
 Wind from S
Wind: S 14 mph , 22 km/h
Temperature: 7°C
Wind Chill: 4°C
Dew Point: 2°C
Humidity: 71%
Barometer: 1024 hPa
Summary: Clear
Visibility: greater than 7 miles , 10 km
2019/02/15 22:20 EGKB 152220Z 18012KT CAVOK 07/02 Q1024
 
EGDY - RNAS Yeovilton, United Kingdom
Distance from station: WNW 66mi, 107km
Updated: 15-Feb-2019 22:50:00
Mist, Clear
Mist, Clear
 Wind from NW
Wind: NW 2 mph , 4 km/h
Temperature: 5°C
Dew Point: 4°C
Humidity: 93%
Barometer: 1023 hPa
Summary: Mist
Clouds: Clear
Visibility: 2 miles , 4 km
2019/02/15 22:50 EGDY 152250Z AUTO 32002KT 3800 BR NCD 05/04 Q1023
EGUO - Colerne Airfield, United Kingdom
Distance from station: NW 67mi, 108km
Updated: 14-Feb-2019 22:50:00
NOT Current
Clear
Clear
 Wind from ENE
Wind: ENE 1 mph , 2 km/h
Temperature: 1°C
Dew Point: 0°C
Humidity: 93%
Barometer: 1029 hPa
Summary: Clear
Visibility: greater than 7 miles , 10 km
2019/02/14 22:50 EGUO 142250Z 06001KT CAVOK 01/00 Q1029 BLU NOSIG
EGVA - RAF Fairford, United Kingdom
Distance from station: NNW 67mi, 108km
Updated: 15-Feb-2019 22:56:00
Clear
Clear
 Wind from SW
Wind: SW 8 mph , 13 km/h
Temperature: 5°C
Wind Chill: 2°C
Dew Point: 4°C
Humidity: 93%
Barometer: 1022 hPa
Clouds: Clear
2019/02/15 22:56 EGVA 152256Z AUTO 23007KT M M CLR 05/04 A3018 RMK AO2 SLP226 T00540042 RVRNO $
 
EGVN - RAF Brize Norton, United Kingdom
Distance from station: NNW 71mi, 114km
Updated: 15-Feb-2019 22:50:00
Clear
Clear
 Wind from SW
Wind: SW 5 mph , 7 km/h
Temperature: 6°C
Wind Chill: 4°C
Dew Point: 4°C
Humidity: 87%
Barometer: 1022 hPa
Summary: Clear
Visibility: greater than 7 miles , 10 km
2019/02/15 22:50 EGVN 152250Z 22004KT CAVOK 06/04 Q1022 BLU NOSIG
EGLC - London City Airport, United Kingdom
Distance from station: NE 71mi, 115km
Updated: 15-Feb-2019 22:50:00
Clear
Clear
 Wind from varies
Wind: varies 3 mph , 6 km/h
Temperature: 8°C
Dew Point: 1°C
Humidity: 62%
Barometer: 1024 hPa
Clouds: Clear
Visibility: 6 miles , 10 km
2019/02/15 22:50 EGLC 152250Z AUTO VRB03KT 9999 NCD 08/01 Q1024
EGGD - Bristol Airport, United Kingdom
Distance from station: WNW 80mi, 128km
Updated: 15-Feb-2019 22:50:00
Clear
Clear
 Wind from SSW
Wind: SSW 12 mph , 19 km/h
Temperature: 8°C
Wind Chill: 4°C
Dew Point: 5°C
Humidity: 82%
Barometer: 1022 hPa
Clouds: Clear
Visibility: 6 miles , 10 km
2019/02/15 22:50 EGGD 152250Z AUTO 20010KT 9999 NCD 08/05 Q1022
 
LFRC - Cherbourg-Maupertus Airport, France
Distance from station: S 81mi, 130km
Updated: 15-Feb-2019 23:00:00
Clear
Clear
 Wind from SSW
Wind: SSW 10 mph , 17 km/h
Temperature: 8°C
Wind Chill: 5°C
Dew Point: 5°C
Humidity: 82%
Barometer: 1025 hPa
Summary: Clear
Visibility: greater than 7 miles , 10 km
2019/02/15 23:00 LFRC 152300Z AUTO 21009KT CAVOK 08/05 Q1025
EGGW - Luton Airport, United Kingdom
Distance from station: NNE 82mi, 132km
Updated: 15-Feb-2019 22:50:00
Clear
Clear
 Wind from S
Wind: S 12 mph , 19 km/h
Temperature: 6°C
Wind Chill: 3°C
Dew Point: 3°C
Humidity: 81%
Barometer: 1022 hPa
Clouds: Clear
Visibility: 6 miles , 10 km
2019/02/15 22:50 EGGW 152250Z AUTO 19010KT 9999 NCD 06/03 Q1022